香港 の空港の天気 - METARとTAF

香港国際空港 ( VHHH / HKG ) - 香港 赤リョウ角
飛行場実況気象(Metar)
観測時間05/28 03:00 HKT (05/27 19:00 UTC)
風向・風速東 5m/s
視程10km以上
天気現象
なし
気温26℃
湿度70%
気圧1009hPa
METARVHHH 271900Z 10009KT CAVOK 26/20 Q1009 NOSIG
過去の天気等 Google飛行場航空写真 Wunderground天気予報

過去48時間のMETAR

飛行場予報(TAF)
発表時間: 5/28 01:00 HKT (5/27 17:00 UTC)
予報対象時間: 28日2時 HKT ~ 29日8時 HKT
風向・風速東 5m/s
視程9,000m
少しの雲 雲底高度 1,070m
28日2時 HKT ~ 28日11時 HKT に一時的に
風向・風速東 8m/s 瞬間風速 13m/s
28日14時 HKT ~ 28日18時 HKT に一時的に
風向・風速西 5m/s
28日20時 HKT ~ 29日8時 HKT に一時的に
風向・風速東 8m/s 瞬間風速 13m/s
TAF VHHH 271700Z 2718/2824 10010KT 9000 FEW035 TX31/2806Z TN25/2723Z TN25/2823Z
TEMPO 2718/2803 08015G25KT
TEMPO 2806/2810 28010KT
TEMPO 2812/2824 08015G25KT